Miami, Florida
Traffic Map
Current Weather Conditions
Miami, Florida
Overcast Moderate Rain
Overcast
22°
Feels Like: 22°
Wind Chill: 22° Ceiling: 1000
Heat Index: 22° Visibility: 1mi
Dew Point: 21° Wind: 14mph
Humidity: 93% Direction: 50° (NE)
Pressure: 30.13in Gusts: 21mph
Raw Report DataKMIA 211915Z 05012G18KT 1SM RA BR SCT007 BKN010 OVC015 22/21 A3013 RMK AO2 P0005 T02170206
Traffic Incident Summary
Active as of:
Severity:
Category:
InformationThere was an issue retrieving the traffic information for this location. Please try a different location or try again shortly.
Advertisements
Track Severe Weather on mobile